This is the latest recevied weather packets stored in our database for station/object K1BES. If no packets are shown the sender has not sent any weather packets the latest 10 day(s).
| Time | Temp. | Humidity | Pressure | Rain* | Wind** | Luminosity | Snow |
|---|---|---|---|---|---|---|---|
| 1788024247 | 34.44° C | 60% | 1019.5 hPa | 0 mm | - | 1011 W/m² | - |
| 1788023942 | 35° C | 59% | 1019.5 hPa | 0 mm | - | 1008 W/m² | - |
| 1788023638 | 35° C | 59% | 1019.6 hPa | 0 mm | - | 1004 W/m² | - |
| 1788023334 | 35° C | 60% | 1019.4 hPa | 0 mm | - | 1003 W/m² | - |
| 1788023034 | 34.44° C | 63% | 1019.4 hPa | 0 mm | - | 1000 W/m² | - |
| 1788022732 | 34.44° C | 62% | 1019.6 hPa | 0 mm | - | 999 W/m² | - |
| 1788022430 | 34.44° C | 63% | 1019.7 hPa | 0 mm | - | 992 W/m² | - |
| 1788022125 | 35° C | 62% | 1019.8 hPa | 0 mm | - | 978 W/m² | - |
| 1788021824 | 35° C | 61% | 1019.8 hPa | 0 mm | - | 980 W/m² | - |
| 1788021523 | 35° C | 60% | 1019.7 hPa | 0 mm | - | 985 W/m² | - |
| 1788021217 | 35° C | 60% | 1020 hPa | 0 mm | - | 983 W/m² | - |
| 1788020913 | 35° C | 61% | 1020 hPa | 0 mm | - | 961 W/m² | - |
| 1788020612 | 35° C | 62% | 1019.9 hPa | 0 mm | - | 994 W/m² | - |
| 1788020309 | 35° C | 62% | 1020.5 hPa | 0 mm | - | 1002 W/m² | - |
| 1788020004 | 35° C | 63% | 1020.1 hPa | 0 mm | - | 1049 W/m² | - |
| 1788019704 | 34.44° C | 64% | 1020 hPa | 0 mm | - | 988 W/m² | - |
| 1788019403 | 33.89° C | 65% | 1020 hPa | 0 mm | - | 963 W/m² | - |
| 1788019102 | 33.89° C | 67% | 1020 hPa | 0 mm | - | 1019 W/m² | - |
| 1788018802 | 34.44° C | 64% | 1020 hPa | 0 mm | - | 972 W/m² | - |
| 1788018497 | 35.56° C | 61% | 1020.1 hPa | 0 mm | - | 188 W/m² | - |
| 1788018196 | 35° C | 59% | 1020.5 hPa | 0 mm | - | 924 W/m² | - |
| 1788017893 | 34.44° C | 58% | 1020.5 hPa | 0 mm | - | 903 W/m² | - |
| 1788017589 | 34.44° C | 58% | 1020.5 hPa | 0 mm | - | 869 W/m² | - |
| 1788017285 | 33.89° C | 61% | 1020.4 hPa | 0 mm | - | 866 W/m² | - |
| 1788016981 | 33.89° C | 61% | 1020.5 hPa | 0 mm | - | 882 W/m² | - |
* Rain latest hour (hover to see other rain measurements)
** Current wind speed in m/s (hover to see current wind gust speed)